AAL2533 KPHL-KDFW
Flight info
| Callsign | AAL2533 |
|---|---|
| Flight time | N/A |
| Altitude | 26000 |
| Route | MXE PENSY J110 FLIRT J6 HVQ Q68 LITTR FEWWW BRDJE5 |
| Aircraft | A321/M-SDE3FGHIRWY/LB1 |
Departure
| Time | 2026-05-07 20:31 |
|---|---|
| Airport | Philadelphia International Airport (KPHL) |
Arrival
| Time | N/A |
|---|---|
| Airport | Dallas Fort Worth International Airport (KDFW) |
| Time | Latitude | Longitude | Altitude | Speed | Heading |
|---|---|---|---|---|---|
| 2026-05-07 20:10 | 39.87361 | -75.24328 | 26 ft | 0 kts | 346° |
| 2026-05-07 20:23 | 39.87342 | -75.24321 | 31 ft | 4 kts | 351° |
| 2026-05-07 20:23 | 39.87317 | -75.24323 | 28 ft | 4 kts | 26° |
| 2026-05-07 20:23 | 39.87299 | -75.24344 | 28 ft | 3 kts | 71° |
| 2026-05-07 20:23 | 39.87296 | -75.24355 | 30 ft | 0 kts | 75° |
| 2026-05-07 20:27 | 39.87298 | -75.24347 | 25 ft | 3 kts | 75° |
| 2026-05-07 20:27 | 39.87306 | -75.24310 | 27 ft | 6 kts | 75° |
| 2026-05-07 20:27 | 39.87317 | -75.24248 | 30 ft | 8 kts | 80° |
| 2026-05-07 20:28 | 39.87290 | -75.24189 | 29 ft | 8 kts | 145° |
| 2026-05-07 20:28 | 39.87231 | -75.24149 | 29 ft | 11 kts | 153° |
| 2026-05-07 20:28 | 39.87152 | -75.24100 | 28 ft | 13 kts | 160° |
| 2026-05-07 20:28 | 39.87063 | -75.24070 | 28 ft | 13 kts | 165° |
| 2026-05-07 20:29 | 39.86975 | -75.24040 | 25 ft | 13 kts | 165° |
| 2026-05-07 20:29 | 39.86909 | -75.23974 | 27 ft | 13 kts | 102° |
| 2026-05-07 20:29 | 39.86846 | -75.23916 | 26 ft | 12 kts | 159° |
| 2026-05-07 20:29 | 39.86796 | -75.23944 | 28 ft | 6 kts | 252° |
| 2026-05-07 20:30 | 39.86795 | -75.23950 | 27 ft | 1 kts | 254° |
| 2026-05-07 20:30 | 39.86795 | -75.23952 | 28 ft | 0 kts | 254° |
| 2026-05-07 20:30 | 39.86772 | -75.24057 | 25 ft | 40 kts | 255° |
| 2026-05-07 20:30 | 39.86646 | -75.24693 | 26 ft | 103 kts | 255° |
| 2026-05-07 20:31 | 39.86418 | -75.25835 | 27 ft | 155 kts | 255° |
| 2026-05-07 20:31 | 39.86113 | -75.27352 | 202 ft | 180 kts | 258° |
| 2026-05-07 20:31 | 39.85764 | -75.28880 | 932 ft | 175 kts | 251° |
| 2026-05-07 20:31 | 39.85376 | -75.30422 | 1327 ft | 188 kts | 252° |
| 2026-05-07 20:32 | 39.84977 | -75.32116 | 1485 ft | 209 kts | 253° |
| 2026-05-07 20:32 | 39.84537 | -75.34002 | 1737 ft | 226 kts | 253° |
| 2026-05-07 20:32 | 39.84061 | -75.36028 | 2080 ft | 241 kts | 253° |
| 2026-05-07 20:32 | 39.83595 | -75.38155 | 2480 ft | 247 kts | 261° |
| 2026-05-07 20:33 | 39.83658 | -75.40380 | 3129 ft | 250 kts | 285° |
| 2026-05-07 20:33 | 39.84268 | -75.42513 | 3772 ft | 253 kts | 290° |
| 2026-05-07 20:33 | 39.84926 | -75.44648 | 4459 ft | 254 kts | 291° |
| 2026-05-07 20:33 | 39.85591 | -75.46786 | 5137 ft | 256 kts | 291° |
| 2026-05-07 20:34 | 39.86262 | -75.48940 | 5790 ft | 258 kts | 291° |
| 2026-05-07 20:34 | 39.86933 | -75.51114 | 6420 ft | 260 kts | 290° |
| 2026-05-07 20:34 | 39.87606 | -75.53306 | 7077 ft | 261 kts | 290° |
| 2026-05-07 20:34 | 39.88277 | -75.55494 | 7761 ft | 260 kts | 289° |
| 2026-05-07 20:35 | 39.88945 | -75.57679 | 8458 ft | 259 kts | 289° |
| 2026-05-07 20:35 | 39.89608 | -75.59860 | 9150 ft | 259 kts | 288° |
| 2026-05-07 20:35 | 39.90269 | -75.62032 | 9835 ft | 258 kts | 288° |
| 2026-05-07 20:35 | 39.90933 | -75.64218 | 10262 ft | 266 kts | 288° |
| 2026-05-07 20:36 | 39.91498 | -75.66585 | 10383 ft | 281 kts | 279° |
| 2026-05-07 20:36 | 39.91749 | -75.69174 | 10523 ft | 296 kts | 270° |
| 2026-05-07 20:36 | 39.91715 | -75.71918 | 10641 ft | 311 kts | 267° |
| 2026-05-07 20:36 | 39.91655 | -75.74800 | 10765 ft | 326 kts | 267° |
| 2026-05-07 20:37 | 39.91594 | -75.77804 | 11010 ft | 336 kts | 267° |
| 2026-05-07 20:37 | 39.91535 | -75.80856 | 11507 ft | 337 kts | 267° |
| 2026-05-07 20:37 | 39.91477 | -75.83873 | 12031 ft | 338 kts | 266° |
| 2026-05-07 20:37 | 39.91417 | -75.86942 | 12546 ft | 340 kts | 266° |
| 2026-05-07 20:38 | 39.91355 | -75.90028 | 13073 ft | 341 kts | 266° |
| 2026-05-07 20:38 | 39.91289 | -75.93126 | 13584 ft | 343 kts | 266° |
| 2026-05-07 20:38 | 39.91221 | -75.96247 | 14035 ft | 345 kts | 266° |
| 2026-05-07 20:38 | 39.91153 | -75.99382 | 14469 ft | 347 kts | 266° |
| 2026-05-07 20:39 | 39.91083 | -76.02530 | 14911 ft | 348 kts | 266° |
| 2026-05-07 20:39 | 39.91010 | -76.05691 | 15332 ft | 350 kts | 266° |
| 2026-05-07 20:39 | 39.90938 | -76.08866 | 15756 ft | 352 kts | 266° |
| 2026-05-07 20:39 | 39.90863 | -76.12057 | 16180 ft | 353 kts | 266° |
| 2026-05-07 20:40 | 39.90787 | -76.15260 | 16616 ft | 355 kts | 266° |
| 2026-05-07 20:40 | 39.90721 | -76.18480 | 17053 ft | 356 kts | 267° |
| 2026-05-07 20:40 | 39.90755 | -76.21711 | 17462 ft | 358 kts | 269° |
| 2026-05-07 20:40 | 39.90881 | -76.24962 | 17856 ft | 360 kts | 271° |
| 2026-05-07 20:41 | 39.91053 | -76.28225 | 18252 ft | 362 kts | 271° |
| 2026-05-07 20:41 | 39.91238 | -76.31504 | 18600 ft | 364 kts | 271° |
| 2026-05-07 20:41 | 39.91413 | -76.34791 | 18962 ft | 364 kts | 271° |
| 2026-05-07 20:41 | 39.91572 | -76.38088 | 19339 ft | 365 kts | 270° |
| 2026-05-07 20:42 | 39.91719 | -76.41391 | 19720 ft | 365 kts | 270° |
| 2026-05-07 20:42 | 39.91857 | -76.44697 | 20085 ft | 366 kts | 270° |
| 2026-05-07 20:42 | 39.91989 | -76.48009 | 20453 ft | 367 kts | 270° |
| 2026-05-07 20:42 | 39.92117 | -76.51335 | 20831 ft | 368 kts | 270° |
| 2026-05-07 20:43 | 39.92249 | -76.54662 | 21193 ft | 368 kts | 270° |
| 2026-05-07 20:43 | 39.92378 | -76.57998 | 21532 ft | 369 kts | 270° |
| 2026-05-07 20:43 | 39.92508 | -76.61295 | 21853 ft | 370 kts | 270° |
| 2026-05-07 20:43 | 39.92641 | -76.64647 | 22188 ft | 371 kts | 270° |
| 2026-05-07 20:44 | 39.92611 | -76.67995 | 22524 ft | 369 kts | 262° |
| 2026-05-07 20:44 | 39.92074 | -76.71262 | 22830 ft | 370 kts | 252° |
| 2026-05-07 20:44 | 39.91041 | -76.74341 | 23144 ft | 374 kts | 243° |
| 2026-05-07 20:44 | 39.89690 | -76.77243 | 23454 ft | 375 kts | 242° |
| 2026-05-07 20:45 | 39.88331 | -76.80150 | 23740 ft | 377 kts | 242° |
| 2026-05-07 20:45 | 39.86968 | -76.83074 | 24044 ft | 378 kts | 242° |
| 2026-05-07 20:45 | 39.85604 | -76.85997 | 24322 ft | 379 kts | 242° |
| 2026-05-07 20:45 | 39.84234 | -76.88931 | 24572 ft | 381 kts | 242° |
| 2026-05-07 20:46 | 39.82853 | -76.91883 | 24790 ft | 383 kts | 242° |
| 2026-05-07 20:46 | 39.81462 | -76.94841 | 25016 ft | 384 kts | 242° |
| 2026-05-07 20:46 | 39.80062 | -76.97808 | 25245 ft | 385 kts | 242° |
| 2026-05-07 20:46 | 39.78659 | -77.00773 | 25462 ft | 386 kts | 242° |
| 2026-05-07 20:47 | 39.77252 | -77.03751 | 25690 ft | 387 kts | 242° |
| 2026-05-07 20:47 | 39.75846 | -77.06731 | 25882 ft | 387 kts | 242° |
| 2026-05-07 20:47 | 39.74437 | -77.09721 | 26052 ft | 388 kts | 242° |
| 2026-05-07 20:47 | 39.73027 | -77.12711 | 26263 ft | 388 kts | 242° |
| 2026-05-07 20:48 | 39.71618 | -77.15694 | 26524 ft | 387 kts | 242° |
| 2026-05-07 20:48 | 39.70212 | -77.18662 | 26799 ft | 385 kts | 242° |
| 2026-05-07 20:48 | 39.68811 | -77.21619 | 27104 ft | 384 kts | 242° |
| 2026-05-07 20:48 | 39.67415 | -77.24564 | 27382 ft | 383 kts | 243° |
| 2026-05-07 20:49 | 39.66018 | -77.27513 | 27591 ft | 383 kts | 243° |
| 2026-05-07 20:49 | 39.64622 | -77.30455 | 27818 ft | 383 kts | 243° |
| 2026-05-07 20:49 | 39.63226 | -77.33393 | 28082 ft | 382 kts | 243° |
| 2026-05-07 20:49 | 39.61832 | -77.36321 | 28338 ft | 381 kts | 243° |
| 2026-05-07 20:50 | 39.60443 | -77.39236 | 28612 ft | 380 kts | 243° |
| 2026-05-07 20:50 | 39.59058 | -77.42142 | 28876 ft | 378 kts | 243° |
| 2026-05-07 20:50 | 39.57675 | -77.45040 | 29124 ft | 377 kts | 243° |
| 2026-05-07 20:50 | 39.56295 | -77.47921 | 29318 ft | 376 kts | 243° |
| 2026-05-07 20:51 | 39.54921 | -77.50789 | 29643 ft | 374 kts | 243° |
| 2026-05-07 20:51 | 39.53557 | -77.53644 | 29927 ft | 372 kts | 243° |
| 2026-05-07 20:51 | 39.52196 | -77.56488 | 30138 ft | 371 kts | 243° |
| 2026-05-07 20:51 | 39.50839 | -77.59321 | 30360 ft | 370 kts | 243° |
| 2026-05-07 20:52 | 39.49481 | -77.62156 | 30535 ft | 370 kts | 243° |
| 2026-05-07 20:52 | 39.48129 | -77.64977 | 30745 ft | 369 kts | 243° |
| 2026-05-07 20:52 | 39.46791 | -77.67758 | 30950 ft | 368 kts | 243° |
| 2026-05-07 20:52 | 39.45419 | -77.70606 | 31118 ft | 368 kts | 243° |
| 2026-05-07 20:53 | 39.44081 | -77.73379 | 31334 ft | 368 kts | 243° |
| 2026-05-07 20:53 | 39.42710 | -77.76218 | 31521 ft | 367 kts | 244° |
| 2026-05-07 20:53 | 39.41379 | -77.78979 | 31698 ft | 366 kts | 244° |
| 2026-05-07 20:53 | 39.40011 | -77.81811 | 31817 ft | 366 kts | 244° |
| 2026-05-07 20:54 | 39.38682 | -77.84564 | 31809 ft | 366 kts | 244° |
| 2026-05-07 20:54 | 39.36241 | -77.90282 | 31860 ft | 362 kts | 247° |
| 2026-05-07 20:55 | 39.34016 | -77.96104 | 31905 ft | 361 kts | 248° |
| 2026-05-07 20:55 | 39.31776 | -78.01928 | 31856 ft | 363 kts | 248° |
| 2026-05-07 20:56 | 39.29484 | -78.07731 | 31863 ft | 363 kts | 248° |
| 2026-05-07 20:56 | 39.27168 | -78.13522 | 31861 ft | 364 kts | 248° |
| 2026-05-07 20:57 | 39.24841 | -78.19323 | 31867 ft | 364 kts | 248° |
| 2026-05-07 20:57 | 39.22513 | -78.25129 | 31867 ft | 365 kts | 248° |
| 2026-05-07 20:58 | 39.20188 | -78.30933 | 31832 ft | 364 kts | 248° |
| 2026-05-07 20:58 | 39.17860 | -78.36725 | 31849 ft | 364 kts | 248° |
| 2026-05-07 20:59 | 39.15519 | -78.42528 | 31866 ft | 365 kts | 248° |
| 2026-05-07 20:59 | 39.13174 | -78.48341 | 31881 ft | 366 kts | 248° |